Time;durP1;ratioP1;P1;durP2;ratioP2;P2;SDS_P1;SDS_P2;PMS_P1;PMS_P2;Temp;Humidity;BMP_temperature;BMP_pressure;BME280_temperature;BME280_humidity;BME280_pressure;Samples;Min_cycle;Max_cycle;Signal;HPM_P1;HPM_P2
2021/11/23 00:02:23;;;;;;;3.35;0.93;;;;;;;-149.78;100.00;50479.28;5067162;28;20055;-63
2021/11/23 00:04:49;;;;;;;1.38;0.80;;;;;;;-149.78;100.00;50498.81;5059239;28;20037;-62
2021/11/23 00:07:15;;;;;;;2.65;0.95;;;;;;;-149.78;100.00;50494.91;5056661;28;20029;-62
2021/11/23 00:09:41;;;;;;;1.45;0.80;;;;;;;-149.78;100.00;50451.88;5064020;28;20075;-63
2021/11/23 00:12:07;;;;;;;1.65;0.80;;;;;;;-149.78;100.00;50479.28;5060914;28;20029;-63
2021/11/23 00:14:33;;;;;;;1.70;0.82;;;;;;;-149.78;100.00;50502.75;5059794;28;20037;-63
2021/11/23 00:16:59;;;;;;;2.03;0.98;;;;;;;-149.78;100.00;50463.63;5067317;28;20041;-63
2021/11/23 00:19:24;;;;;;;1.80;1.00;;;;;;;-149.78;100.00;50498.81;5068254;28;20070;-63
2021/11/23 00:21:51;;;;;;;1.73;1.10;;;;;;;-149.78;100.00;50491.00;5061136;28;20036;-63
2021/11/23 00:24:17;;;;;;;2.50;1.45;;;;;;;-149.78;100.00;50432.31;5060700;28;20127;-63
2021/11/23 00:26:43;;;;;;;2.90;1.30;;;;;;;-149.78;100.00;50483.19;5060303;28;20032;-63
2021/11/23 00:29:09;;;;;;;8.80;2.85;;;;;;;-149.78;100.00;50498.81;5061199;28;20037;-63
2021/11/23 00:31:34;;;;;;;8.13;3.15;;;;;;;-149.78;100.00;50463.63;5061119;28;20036;-63
2021/11/23 00:34:00;;;;;;;6.13;2.90;;;;;;;-149.78;100.00;50492.97;5053880;28;20040;-63
2021/11/23 00:36:26;;;;;;;10.57;4.00;;;;;;;-149.78;100.00;50471.44;5060875;28;20036;-63
2021/11/23 00:38:52;;;;;;;9.13;4.35;;;;;;;-149.78;100.00;50463.63;5043524;28;20368;-63
2021/11/23 00:41:18;;;;;;;7.97;4.10;;;;;;;-149.78;100.00;50514.47;5055383;28;20124;-63
2021/11/23 00:43:46;;;;;;;8.90;3.67;;;;;;;-149.78;100.00;50449.94;5054668;28;20025;-63
2021/11/23 00:46:12;;;;;;;8.27;3.42;;;;;;;-149.78;100.00;50455.81;5060971;28;20028;-63
2021/11/23 00:48:38;;;;;;;13.90;4.57;;;;;;;-149.78;100.00;50479.28;5060997;28;20040;-63
2021/11/23 00:51:05;;;;;;;11.40;4.10;;;;;;;-149.78;100.00;50494.91;5058975;28;20037;-63
2021/11/23 00:53:33;;;;;;;12.60;4.55;;;;;;;-149.78;100.00;50514.47;5062638;28;20061;-63
2021/11/23 00:55:59;;;;;;;12.40;4.88;;;;;;;-149.78;100.00;50471.44;5063033;28;20032;-63
2021/11/23 00:58:25;;;;;;;11.18;4.05;;;;;;;-149.78;100.00;50481.22;5060359;28;20033;-63
2021/11/23 01:00:51;;;;;;;8.73;4.47;;;;;;;-149.78;100.00;50518.38;5069513;28;20040;-63
2021/11/23 01:03:18;;;;;;;7.85;4.20;;;;;;;-149.78;100.00;50465.56;5063546;28;20040;-63
2021/11/23 01:05:47;;;;;;;10.10;4.35;;;;;;;-149.78;100.00;50491.00;5056188;28;20507;-63
2021/11/23 01:08:17;;;;;;;10.40;4.45;;;;;;;-149.78;100.00;50459.72;5059069;28;20431;-63
2021/11/23 01:10:44;;;;;;;10.02;4.10;;;;;;;-149.78;100.00;50491.00;5058039;28;20029;-63
2021/11/23 01:13:09;;;;;;;8.32;3.95;;;;;;;-149.78;100.00;50463.63;5057068;28;20442;-63
2021/11/23 01:15:36;;;;;;;6.93;4.32;;;;;;;-149.78;100.00;50506.66;5064373;28;20037;-63
2021/11/23 01:18:03;;;;;;;8.45;4.22;;;;;;;-149.78;100.00;50512.50;5056292;28;20055;-63
2021/11/23 01:20:30;;;;;;;12.55;4.53;;;;;;;-149.78;100.00;50459.72;5058331;28;20156;-63
2021/11/23 01:22:57;;;;;;;10.23;3.97;;;;;;;-149.78;100.00;50475.34;5072902;28;20050;-63
2021/11/23 01:25:24;;;;;;;7.25;3.50;;;;;;;-149.78;100.00;50479.28;5063194;28;20128;-63
2021/11/23 01:27:50;;;;;;;8.38;3.50;;;;;;;-149.78;100.00;50481.22;5065606;28;20024;-63
2021/11/23 01:30:17;;;;;;;6.53;3.00;;;;;;;-149.78;100.00;50514.47;5061805;28;20032;-63
2021/11/23 01:32:43;;;;;;;5.20;3.08;;;;;;;-149.78;100.00;50479.28;5067000;28;20036;-63
2021/11/23 01:35:14;;;;;;;7.20;2.97;;;;;;;-149.78;100.00;50498.81;5065019;28;20033;-64
2021/11/23 01:37:43;;;;;;;4.10;2.75;;;;;;;-149.78;100.00;50522.28;5065812;28;20064;-63
2021/11/23 01:40:14;;;;;;;4.95;2.25;;;;;;;-149.78;100.00;50522.28;5058710;28;20150;-63
2021/11/23 01:42:39;;;;;;;6.35;2.30;;;;;;;-149.78;100.00;50492.97;5065655;28;20115;-63
2021/11/23 01:45:06;;;;;;;5.88;2.35;;;;;;;-149.78;100.00;50514.47;5059917;28;20490;-63
2021/11/23 01:47:31;;;;;;;5.57;2.10;;;;;;;-149.78;100.00;50491.00;5058317;28;20400;-63
2021/11/23 01:49:57;;;;;;;4.78;2.22;;;;;;;-149.78;100.00;50512.50;5054003;28;20045;-63
2021/11/23 01:52:23;;;;;;;4.75;2.10;;;;;;;-149.78;100.00;50494.91;5059277;28;20086;-63
2021/11/23 01:54:51;;;;;;;9.15;2.25;;;;;;;-149.78;100.00;50494.91;5064180;28;20494;-63
2021/11/23 01:57:19;;;;;;;4.93;2.10;;;;;;;-149.78;100.00;50526.22;5068867;28;20137;-63
2021/11/23 01:59:46;;;;;;;5.20;2.28;;;;;;;-149.78;100.00;50506.66;5066610;28;20082;-63
2021/11/23 02:02:12;;;;;;;6.38;2.30;;;;;;;-149.78;100.00;50537.94;5043768;28;20033;-63
2021/11/23 02:04:38;;;;;;;3.97;1.70;;;;;;;-149.78;100.00;50491.00;5065333;28;20041;-63
2021/11/23 02:07:04;;;;;;;2.63;1.30;;;;;;;-149.78;100.00;50483.19;5071973;28;20028;-63
2021/11/23 02:09:30;;;;;;;4.82;1.92;;;;;;;-149.78;100.00;50479.28;5062402;28;20041;-63
2021/11/23 02:11:56;;;;;;;2.00;1.38;;;;;;;-149.78;100.00;50541.84;5065738;28;20047;-63
2021/11/23 02:14:22;;;;;;;5.72;1.60;;;;;;;-149.78;100.00;50455.81;5067465;28;20028;-63
2021/11/23 02:16:48;;;;;;;1.75;1.10;;;;;;;-149.78;100.00;50481.22;5072527;28;20029;-63
2021/11/23 02:19:14;;;;;;;1.17;1.00;;;;;;;-149.78;100.00;50481.22;5074040;28;20101;-63
2021/11/23 02:21:40;;;;;;;2.03;0.93;;;;;;;-149.78;100.00;50491.00;5069676;28;20039;-63
2021/11/23 02:24:06;;;;;;;1.92;0.90;;;;;;;-149.78;100.00;50526.22;5069234;28;20111;-63
2021/11/23 02:26:32;;;;;;;3.63;1.05;;;;;;;-149.78;100.00;50459.72;5063649;28;20090;-63
2021/11/23 02:28:58;;;;;;;2.58;1.00;;;;;;;-149.78;100.00;50479.28;5065490;28;20040;-63
2021/11/23 02:31:24;;;;;;;1.83;0.82;;;;;;;-149.78;100.00;50489.03;5062245;28;20060;-63
2021/11/23 02:33:50;;;;;;;2.58;0.95;;;;;;;-149.78;100.00;50483.19;5070117;28;20051;-64
2021/11/23 02:36:16;;;;;;;1.73;0.80;;;;;;;-149.78;100.00;50432.31;5071700;28;20067;-63
2021/11/23 02:38:42;;;;;;;8.82;1.50;;;;;;;-149.78;100.00;50494.91;5060693;28;20056;-63
2021/11/23 02:41:12;;;;;;;1.98;1.00;;;;;;;-149.78;100.00;50494.91;5066032;28;20111;-63
2021/11/23 02:43:39;;;;;;;3.50;1.63;;;;;;;-149.78;100.00;50473.41;5071261;28;20467;-63
2021/11/23 02:46:05;;;;;;;4.40;1.30;;;;;;;-149.78;100.00;50491.00;5066557;28;20043;-63
2021/11/23 02:48:31;;;;;;;5.10;1.48;;;;;;;-149.78;100.00;50467.53;5065567;28;20643;-63
2021/11/23 02:51:12;;;;;;;1.85;1.23;;;;;;;-149.78;100.00;50471.44;5048957;28;20090;-63
2021/11/23 02:53:38;;;;;;;5.45;1.20;;;;;;;-149.78;100.00;50483.19;5059971;28;20024;-63
2021/11/23 02:56:04;;;;;;;4.22;1.52;;;;;;;-149.78;100.00;50522.28;5058464;28;20040;-63
2021/11/23 02:58:32;;;;;;;2.83;1.13;;;;;;;-149.78;100.00;50481.22;5060858;28;20036;-63
2021/11/23 03:01:03;;;;;;;4.03;1.20;;;;;;;-149.78;100.00;50487.09;5067394;28;20039;-63
2021/11/23 03:03:29;;;;;;;2.42;1.40;;;;;;;-149.78;100.00;50512.50;5061792;28;20025;-63
2021/11/23 03:05:56;;;;;;;2.78;1.48;;;;;;;-149.78;100.00;50463.63;5067443;28;20082;-63
2021/11/23 03:08:22;;;;;;;4.20;2.13;;;;;;;-149.78;100.00;50485.13;5058556;28;20041;-63
2021/11/23 03:10:47;;;;;;;2.50;1.70;;;;;;;-149.78;100.00;50461.66;5058555;28;20032;-65
2021/11/23 03:13:13;;;;;;;3.10;1.90;;;;;;;-149.78;100.00;50492.97;5059979;28;20028;-65
2021/11/23 03:15:39;;;;;;;3.25;2.00;;;;;;;-149.78;100.00;50496.88;5057200;28;20029;-65
2021/11/23 03:18:06;;;;;;;3.50;1.83;;;;;;;-149.78;100.00;50494.91;5062164;28;20110;-63
2021/11/23 03:20:33;;;;;;;3.22;1.75;;;;;;;-149.78;100.00;50471.44;5057058;28;20033;-65
2021/11/23 03:22:59;;;;;;;3.60;1.88;;;;;;;-149.78;100.00;50530.13;5062028;28;20090;-65
2021/11/23 03:25:26;;;;;;;4.80;1.63;;;;;;;-149.78;100.00;50467.53;5056843;28;20039;-63
2021/11/23 03:27:52;;;;;;;4.30;1.70;;;;;;;-149.78;100.00;50514.47;5054435;28;20075;-64
2021/11/23 03:30:24;;;;;;;2.30;1.30;;;;;;;-149.78;100.00;50479.28;5065970;28;20037;-65
2021/11/23 03:32:50;;;;;;;3.53;1.48;;;;;;;-149.78;100.00;50498.81;5057573;28;20029;-64
2021/11/23 03:35:16;;;;;;;4.35;1.73;;;;;;;-149.78;100.00;50522.28;5054370;28;20041;-65
2021/11/23 03:37:42;;;;;;;3.28;1.80;;;;;;;-149.78;100.00;50526.22;5064733;28;20425;-65
2021/11/23 03:40:10;;;;;;;3.60;2.03;;;;;;;-149.78;100.00;50504.69;5063726;28;20044;-63
2021/11/23 03:42:36;;;;;;;5.70;2.05;;;;;;;-149.78;100.00;50494.91;5066382;28;20549;-63
2021/11/23 03:45:02;;;;;;;4.22;2.20;;;;;;;-149.78;100.00;50526.22;5069975;28;20037;-65
2021/11/23 03:47:31;;;;;;;3.88;2.00;;;;;;;-149.78;100.00;50524.25;5063153;28;20459;-65
2021/11/23 03:49:58;;;;;;;3.90;2.00;;;;;;;-149.78;100.00;50494.91;5062768;28;20062;-65
2021/11/23 03:52:24;;;;;;;3.92;2.40;;;;;;;-149.78;100.00;50469.50;5065652;28;20020;-64
2021/11/23 03:54:51;;;;;;;6.20;2.10;;;;;;;-149.78;100.00;50510.56;5060839;28;20472;-65
2021/11/23 03:57:17;;;;;;;5.93;2.50;;;;;;;-149.78;100.00;50498.81;5058806;28;20083;-65
2021/11/23 03:59:47;;;;;;;5.47;2.25;;;;;;;-149.78;100.00;50506.66;5068805;28;20044;-63
2021/11/23 04:02:15;;;;;;;3.95;2.00;;;;;;;-149.78;100.00;50489.03;5060404;28;20480;-65
2021/11/23 04:04:41;;;;;;;6.93;2.22;;;;;;;-149.78;100.00;50496.88;5060969;28;20048;-63
2021/11/23 04:07:07;;;;;;;3.63;1.77;;;;;;;-149.78;100.00;50498.81;5055639;28;20037;-64
2021/11/23 04:09:32;;;;;;;3.88;2.22;;;;;;;-149.78;100.00;50526.22;5067754;28;20081;-65
2021/11/23 04:11:58;;;;;;;5.32;2.13;;;;;;;-149.78;100.00;50510.56;5060184;28;20045;-65
2021/11/23 04:14:24;;;;;;;3.50;1.98;;;;;;;-149.78;100.00;50506.66;5064318;28;20037;-65
2021/11/23 04:16:49;;;;;;;4.72;1.88;;;;;;;-149.78;100.00;50510.56;5062348;28;20036;-65
2021/11/23 04:19:15;;;;;;;5.60;2.05;;;;;;;-149.78;100.00;50518.38;5064148;28;20036;-64
2021/11/23 04:21:41;;;;;;;3.78;1.85;;;;;;;-149.78;100.00;50526.22;5058277;28;20058;-63
2021/11/23 04:24:06;;;;;;;5.85;1.90;;;;;;;-149.78;100.00;50498.81;5058850;28;20028;-65
2021/11/23 04:26:32;;;;;;;6.57;2.40;;;;;;;-149.78;100.00;50512.50;5062642;28;20460;-63
2021/11/23 04:28:58;;;;;;;4.75;2.20;;;;;;;-149.78;100.00;50514.47;5064385;28;20045;-65
2021/11/23 04:31:23;;;;;;;3.58;2.00;;;;;;;-149.78;100.00;50518.38;5056915;28;20037;-63
2021/11/23 04:33:49;;;;;;;4.82;1.98;;;;;;;-149.78;100.00;50522.28;5066184;28;20048;-64
2021/11/23 04:36:15;;;;;;;3.53;1.70;;;;;;;-149.78;100.00;50537.94;5059253;28;20044;-63
2021/11/23 04:38:40;;;;;;;3.22;1.70;;;;;;;-149.78;100.00;50539.91;5062914;28;20182;-63
2021/11/23 04:41:06;;;;;;;3.03;1.90;;;;;;;-149.78;100.00;50522.28;5063375;28;20426;-63
2021/11/23 04:43:32;;;;;;;9.07;2.17;;;;;;;-149.78;100.00;50539.91;5065872;28;20036;-63
2021/11/23 04:45:58;;;;;;;4.95;2.33;;;;;;;-149.78;100.00;50524.25;5064689;28;20044;-63
2021/11/23 04:48:25;;;;;;;6.10;2.30;;;;;;;-149.78;100.00;50502.75;5057054;28;20431;-63
2021/11/23 04:50:51;;;;;;;4.15;2.08;;;;;;;-149.78;100.00;50518.38;5056501;28;20499;-63
2021/11/23 04:53:17;;;;;;;4.28;2.22;;;;;;;-149.78;100.00;50520.34;5067741;28;20039;-63
2021/11/23 04:55:43;;;;;;;5.40;2.45;;;;;;;-149.78;100.00;50498.81;5069738;28;20150;-63
2021/11/23 04:58:08;;;;;;;5.07;2.60;;;;;;;-149.78;100.00;50557.50;5061220;28;20041;-63
2021/11/23 05:00:35;;;;;;;5.97;2.80;;;;;;;-149.78;100.00;50526.22;5044347;28;20045;-63
2021/11/23 05:03:01;;;;;;;6.75;2.90;;;;;;;-149.78;100.00;50537.94;5061218;28;20032;-63
2021/11/23 05:05:27;;;;;;;10.15;3.42;;;;;;;-149.78;100.00;50508.59;5057696;28;20043;-63
2021/11/23 05:07:53;;;;;;;5.70;3.05;;;;;;;-149.78;100.00;50553.59;5060663;28;20089;-63
2021/11/23 05:10:19;;;;;;;7.65;3.60;;;;;;;-149.78;100.00;50514.47;5062108;28;20040;-63
2021/11/23 05:12:44;;;;;;;7.28;3.35;;;;;;;-149.78;100.00;50535.97;5061132;28;20045;-63
2021/11/23 05:15:10;;;;;;;7.78;3.50;;;;;;;-149.78;100.00;50506.66;5069007;28;20041;-63
2021/11/23 05:17:37;;;;;;;8.68;3.88;;;;;;;-149.78;100.00;50514.47;5072868;28;20037;-63
2021/11/23 05:20:06;;;;;;;10.43;3.38;;;;;;;-149.78;100.00;50541.84;5074464;28;20036;-63
2021/11/23 05:22:31;;;;;;;7.72;3.88;;;;;;;-149.78;100.00;50512.50;5075289;28;20032;-63
2021/11/23 05:24:57;;;;;;;7.35;3.58;;;;;;;-149.78;100.00;50512.50;5061425;28;20511;-63
2021/11/23 05:27:23;;;;;;;6.95;3.30;;;;;;;-149.78;100.00;50545.75;5070020;28;20040;-63
2021/11/23 05:29:48;;;;;;;6.10;3.03;;;;;;;-149.78;100.00;50530.13;5067163;28;20487;-63
2021/11/23 05:32:14;;;;;;;6.90;3.20;;;;;;;-149.78;100.00;50510.56;5046234;28;20051;-63
2021/11/23 05:34:39;;;;;;;5.70;3.20;;;;;;;-149.78;100.00;50502.75;5048949;28;20091;-63
2021/11/23 05:37:05;;;;;;;7.18;3.15;;;;;;;-149.78;100.00;50522.28;5059759;28;20056;-63
2021/11/23 05:39:30;;;;;;;8.75;3.05;;;;;;;-149.78;100.00;50549.69;5049992;28;20056;-63
2021/11/23 05:41:56;;;;;;;10.10;3.10;;;;;;;-149.78;100.00;50537.94;5064533;28;20349;-63
2021/11/23 05:44:22;;;;;;;6.47;2.72;;;;;;;-149.78;100.00;50522.28;5062839;28;20180;-63
2021/11/23 05:46:48;;;;;;;7.78;3.08;;;;;;;-149.78;100.00;50510.56;5072275;28;20020;-63
2021/11/23 05:49:16;;;;;;;7.20;3.08;;;;;;;-149.78;100.00;50526.22;5070001;28;20506;-63
2021/11/23 05:51:43;;;;;;;8.02;3.70;;;;;;;-149.78;100.00;50510.56;5057383;28;20037;-63
2021/11/23 05:54:09;;;;;;;9.82;3.38;;;;;;;-149.78;100.00;50483.19;5066676;28;20036;-63
2021/11/23 05:56:35;;;;;;;9.52;3.75;;;;;;;-149.78;100.00;50545.75;5058807;28;20032;-63
2021/11/23 05:59:01;;;;;;;8.05;3.20;;;;;;;-149.78;100.00;50537.94;5064203;28;20028;-63
2021/11/23 06:01:27;;;;;;;8.48;3.22;;;;;;;-149.78;100.00;50526.22;5062470;28;20094;-63
2021/11/23 06:03:52;;;;;;;8.88;3.72;;;;;;;-149.78;100.00;50549.69;5060967;28;20128;-63
2021/11/23 06:06:18;;;;;;;8.85;3.30;;;;;;;-149.78;100.00;50500.78;5064072;28;20037;-63
2021/11/23 06:08:44;;;;;;;10.63;3.63;;;;;;;-149.78;100.00;50534.03;5064276;28;20095;-63
2021/11/23 06:11:09;;;;;;;8.45;3.60;;;;;;;-149.78;100.00;50498.81;5066332;28;20051;-63
2021/11/23 06:13:37;;;;;;;6.90;3.72;;;;;;;-149.78;100.00;50553.59;5059729;28;20407;-63
2021/11/23 06:16:03;;;;;;;9.10;3.72;;;;;;;-149.78;100.00;50498.81;5064336;28;20037;-63
2021/11/23 06:18:28;;;;;;;10.80;4.10;;;;;;;-149.78;100.00;50485.13;5073991;28;20063;-63
2021/11/23 06:20:55;;;;;;;9.65;3.97;;;;;;;-149.78;100.00;50522.28;5057398;28;20068;-63
2021/11/23 06:23:22;;;;;;;10.32;4.22;;;;;;;-149.78;100.00;50496.88;5066268;28;20036;-63
2021/11/23 06:25:50;;;;;;;10.45;4.15;;;;;;;-149.78;100.00;50485.13;5062599;28;20033;-63
2021/11/23 06:28:18;;;;;;;8.55;4.50;;;;;;;-149.78;100.00;50512.50;5066171;28;20509;-63
2021/11/23 06:30:44;;;;;;;8.18;4.13;;;;;;;-149.78;100.00;50491.00;5062541;28;20086;-63
2021/11/23 06:33:10;;;;;;;10.00;4.85;;;;;;;-149.78;100.00;50449.94;5060373;28;20036;-63
2021/11/23 06:35:37;;;;;;;13.73;5.13;;;;;;;-149.78;100.00;50512.50;5061512;28;20372;-63
2021/11/23 06:38:04;;;;;;;9.07;4.85;;;;;;;-149.78;100.00;50487.09;5048278;28;20040;-63
2021/11/23 06:40:31;;;;;;;8.77;4.35;;;;;;;-149.78;100.00;50494.91;5059443;28;20067;-64
2021/11/23 06:42:57;;;;;;;15.90;6.13;;;;;;;-149.78;100.00;50494.91;5059957;28;20048;-64
2021/11/23 06:45:23;;;;;;;9.73;5.22;;;;;;;-149.78;100.00;50463.63;5062233;28;20040;-64
2021/11/23 06:47:50;;;;;;;9.25;5.13;;;;;;;-149.78;100.00;50492.97;5068358;28;20040;-65
2021/11/23 06:50:17;;;;;;;11.75;5.55;;;;;;;-149.78;100.00;50492.97;5067433;28;20037;-65
2021/11/23 06:52:43;;;;;;;11.73;5.15;;;;;;;-149.78;100.00;50444.06;5066734;28;20046;-65
2021/11/23 06:55:09;;;;;;;9.10;4.55;;;;;;;-149.78;100.00;50481.22;5069888;28;20032;-65
2021/11/23 06:57:35;;;;;;;8.35;5.10;;;;;;;-149.78;100.00;50487.09;5070341;28;20035;-66
2021/11/23 07:00:03;;;;;;;14.45;5.38;;;;;;;-149.78;100.00;50498.81;5051916;28;20073;-64
2021/11/23 07:02:29;;;;;;;10.43;5.03;;;;;;;-149.78;100.00;50461.66;5071766;28;20111;-64
2021/11/23 07:04:55;;;;;;;11.35;5.40;;;;;;;-149.78;100.00;50500.78;5066924;28;20037;-64
2021/11/23 07:07:21;;;;;;;13.93;5.85;;;;;;;-149.78;100.00;50545.75;5070087;28;20036;-63
2021/11/23 07:09:47;;;;;;;12.43;5.90;;;;;;;-149.78;100.00;50487.09;5066431;28;20064;-63
2021/11/23 07:12:13;;;;;;;15.63;5.65;;;;;;;-149.78;100.00;50447.97;5063607;28;20043;-63
2021/11/23 07:14:39;;;;;;;18.52;6.47;;;;;;;-149.78;100.00;50440.16;5070071;28;20101;-63
2021/11/23 07:17:05;;;;;;;13.60;6.60;;;;;;;-149.78;100.00;50479.28;5068066;28;20060;-63
2021/11/23 07:19:31;;;;;;;13.18;5.95;;;;;;;-149.78;100.00;50471.44;5070107;28;20086;-63
2021/11/23 07:21:57;;;;;;;12.60;6.78;;;;;;;-149.78;100.00;50471.44;5069465;28;20563;-62
2021/11/23 07:24:23;;;;;;;13.98;6.57;;;;;;;-149.78;100.00;50471.44;5068366;28;20032;-63
2021/11/23 07:26:49;;;;;;;13.68;6.20;;;;;;;-149.78;100.00;50471.44;5069481;28;20455;-64
2021/11/23 07:29:15;;;;;;;13.65;5.90;;;;;;;-149.78;100.00;50428.41;5064786;28;20060;-62
2021/11/23 07:31:41;;;;;;;14.98;5.97;;;;;;;-149.78;100.00;50487.09;5071296;28;20493;-62
2021/11/23 07:34:07;;;;;;;15.55;6.57;;;;;;;-149.78;100.00;50463.63;5067563;28;20024;-62
2021/11/23 07:36:33;;;;;;;11.70;5.75;;;;;;;-149.78;100.00;50471.44;5062023;28;20032;-62
2021/11/23 07:39:00;;;;;;;13.13;6.50;;;;;;;-149.78;100.00;50481.22;5054107;28;20029;-62
2021/11/23 07:41:26;;;;;;;18.10;6.53;;;;;;;-149.78;100.00;50455.81;5063288;28;20035;-62
2021/11/23 07:43:51;;;;;;;15.15;7.50;;;;;;;-149.78;100.00;50469.50;5059579;28;20033;-62
2021/11/23 07:46:18;;;;;;;14.18;7.10;;;;;;;-149.78;100.00;50477.31;5065299;28;20484;-62
2021/11/23 07:48:43;;;;;;;14.63;6.85;;;;;;;-149.78;100.00;50479.28;5066720;28;20068;-63
2021/11/23 07:51:09;;;;;;;14.10;6.60;;;;;;;-149.78;100.00;50471.44;5066265;28;20075;-63
2021/11/23 07:53:35;;;;;;;17.33;8.13;;;;;;;-149.78;100.00;50487.09;5056867;28;20033;-63
2021/11/23 07:56:00;;;;;;;16.67;7.78;;;;;;;-149.78;100.00;50479.28;5065949;28;20471;-64
2021/11/23 07:58:26;;;;;;;14.85;6.88;;;;;;;-149.78;100.00;50498.81;5057593;28;20036;-63
2021/11/23 08:00:51;;;;;;;13.55;7.18;;;;;;;-149.78;100.00;50428.41;5055669;28;20060;-63
2021/11/23 08:03:18;;;;;;;12.63;6.18;;;;;;;-149.78;100.00;50492.97;5053600;28;20120;-63
2021/11/23 08:05:43;;;;;;;13.75;6.97;;;;;;;-149.78;100.00;50475.34;5068864;28;20035;-63
2021/11/23 08:08:14;;;;;;;12.15;6.15;;;;;;;-149.78;100.00;50481.22;5070234;28;20078;-64
2021/11/23 08:10:42;;;;;;;15.30;6.50;;;;;;;-149.78;100.00;50467.53;5065846;28;20048;-64
2021/11/23 08:13:08;;;;;;;15.43;6.60;;;;;;;-149.78;100.00;50471.44;5068679;28;20040;-63
2021/11/23 08:15:37;;;;;;;13.00;6.78;;;;;;;-149.78;100.00;50451.88;5067103;28;20450;-62
2021/11/23 08:18:05;;;;;;;12.57;6.55;;;;;;;-149.78;100.00;50483.19;5068832;28;20036;-62
2021/11/23 08:20:31;;;;;;;16.10;7.40;;;;;;;-149.78;100.00;50467.53;5048662;28;20031;-61
2021/11/23 08:22:57;;;;;;;15.20;8.38;;;;;;;-149.78;100.00;50451.88;5070918;28;20025;-62
2021/11/23 08:25:23;;;;;;;18.80;8.27;;;;;;;-149.78;100.00;50471.44;5071304;28;20426;-62
2021/11/23 08:27:49;;;;;;;17.27;8.27;;;;;;;-149.78;100.00;50471.44;5069951;28;20060;-62
2021/11/23 08:30:15;;;;;;;14.38;8.10;;;;;;;-149.78;100.00;50498.81;5073089;28;20129;-62
2021/11/23 08:32:41;;;;;;;16.75;8.90;;;;;;;-149.78;100.00;50479.28;5072423;28;20476;-62
2021/11/23 08:35:09;;;;;;;18.75;8.68;;;;;;;-149.78;100.00;50494.91;5070171;28;20127;-62
2021/11/23 08:37:35;;;;;;;15.57;8.43;;;;;;;-149.78;100.00;50463.63;5071974;28;20025;-61
2021/11/23 08:40:03;;;;;;;16.02;7.35;;;;;;;-149.78;100.00;50491.00;5071555;28;20119;-62
2021/11/23 08:42:29;;;;;;;14.10;6.72;;;;;;;-149.78;100.00;50440.16;5071006;28;20072;-62
2021/11/23 08:44:55;;;;;;;13.15;6.85;;;;;;;-149.78;100.00;50432.31;5072064;28;20472;-62
2021/11/23 08:47:21;;;;;;;13.02;6.93;;;;;;;-149.78;100.00;50461.66;5072769;28;20533;-62
2021/11/23 08:49:48;;;;;;;12.70;6.45;;;;;;;-149.78;100.00;50416.69;5072059;28;20082;-62
2021/11/23 08:52:15;;;;;;;12.50;5.90;;;;;;;-149.78;100.00;50467.53;5070470;28;20033;-62
2021/11/23 08:54:41;;;;;;;10.85;6.15;;;;;;;-149.78;100.00;50451.88;5069674;28;20024;-62
2021/11/23 08:57:08;;;;;;;10.55;5.97;;;;;;;-149.78;100.00;50447.97;5054596;28;20070;-62
2021/11/23 08:59:44;;;;;;;17.13;5.72;;;;;;;-149.78;100.00;50467.53;5072161;28;20395;-63
2021/11/23 09:02:13;;;;;;;12.40;5.07;;;;;;;-149.78;100.00;50487.09;5070811;28;20032;-61
2021/11/23 09:04:40;;;;;;;10.48;4.95;;;;;;;-149.78;100.00;50475.34;5055070;28;20028;-61
2021/11/23 09:07:08;;;;;;;9.60;5.38;;;;;;;-149.78;100.00;50473.41;5069054;28;20059;-62
2021/11/23 09:09:37;;;;;;;8.38;5.00;;;;;;;-149.78;100.00;50479.28;5071537;28;20029;-62
2021/11/23 09:12:03;;;;;;;8.10;4.20;;;;;;;-149.78;100.00;50461.66;5064346;28;20423;-62
2021/11/23 09:14:30;;;;;;;8.15;4.45;;;;;;;-149.78;100.00;50455.81;5070729;28;20070;-63
2021/11/23 09:16:57;;;;;;;8.88;4.75;;;;;;;-149.78;100.00;50471.44;5072324;28;20154;-64
2021/11/23 09:19:23;;;;;;;8.68;4.78;;;;;;;-149.78;100.00;50463.63;5071205;28;20031;-62
2021/11/23 09:21:49;;;;;;;12.90;5.25;;;;;;;-149.78;100.00;50440.16;5068168;28;20115;-63
2021/11/23 09:24:14;;;;;;;11.90;5.53;;;;;;;-149.78;100.00;50414.72;5072271;28;20042;-63
2021/11/23 09:26:40;;;;;;;8.90;4.70;;;;;;;-149.78;100.00;50483.19;5069621;28;20498;-63
2021/11/23 09:29:09;;;;;;;7.90;4.43;;;;;;;-149.78;100.00;50432.31;5065429;28;20041;-63
2021/11/23 09:31:35;;;;;;;10.27;5.07;;;;;;;-149.78;100.00;50440.16;5051869;28;20032;-63
2021/11/23 09:34:01;;;;;;;7.03;3.72;;;;;;;-149.78;100.00;50447.97;5066390;28;20032;-63
2021/11/23 09:36:27;;;;;;;5.10;3.35;;;;;;;-149.78;100.00;50455.81;5072060;28;20148;-63
2021/11/23 09:38:53;;;;;;;5.30;3.40;;;;;;;-149.78;100.00;50434.28;5072074;28;20502;-64
2021/11/23 09:41:18;;;;;;;8.50;3.85;;;;;;;-149.78;100.00;50426.47;5072968;28;20158;-64
2021/11/23 09:43:44;;;;;;;6.43;3.92;;;;;;;-149.78;100.00;50459.72;5070901;28;20055;-64
2021/11/23 09:46:10;;;;;;;5.45;3.38;;;;;;;-149.78;100.00;50469.50;5069950;28;20075;-63
2021/11/23 09:48:41;;;;;;;4.82;2.92;;;;;;;-149.78;100.00;50485.13;5072950;28;20136;-64
2021/11/23 09:51:16;;;;;;;4.28;2.90;;;;;;;-149.78;100.00;50401.03;5070148;28;20492;-64
2021/11/23 09:53:42;;;;;;;6.75;3.70;;;;;;;-149.78;100.00;50389.31;5072535;28;20032;-64
2021/11/23 09:56:07;;;;;;;7.40;3.75;;;;;;;-149.78;100.00;50455.81;5072063;28;20036;-64
2021/11/23 09:58:33;;;;;;;9.02;3.13;;;;;;;-149.78;100.00;50440.16;5055949;28;20372;-64
2021/11/23 10:01:11;;;;;;;7.65;2.83;;;;;;;-149.78;100.00;50401.03;5072165;28;20029;-64
2021/11/23 10:03:38;;;;;;;7.18;2.55;;;;;;;-149.78;100.00;50432.31;5072350;28;20029;-64
2021/11/23 10:06:13;;;;;;;3.08;1.98;;;;;;;-149.78;100.00;50447.97;5071559;28;20414;-64
2021/11/23 10:08:42;;;;;;;4.40;1.95;;;;;;;-149.78;100.00;50432.31;5071509;28;20044;-64
2021/11/23 10:11:10;;;;;;;3.58;1.80;;;;;;;-149.78;100.00;50455.81;5072169;28;20032;-64
2021/11/23 10:13:50;;;;;;;4.07;2.03;;;;;;;-149.78;100.00;50453.84;5068695;28;20041;-64
2021/11/23 10:16:17;;;;;;;3.25;2.10;;;;;;;-149.78;100.00;50440.16;5073272;28;20111;-64
2021/11/23 10:18:44;;;;;;;2.72;1.40;;;;;;;-149.78;100.00;50428.41;5070802;28;20033;-65
2021/11/23 10:21:12;;;;;;;1.80;1.55;;;;;;;-149.78;100.00;50449.94;5069142;28;20039;-64
2021/11/23 10:23:43;;;;;;;3.00;1.75;;;;;;;-149.78;100.00;50479.28;5068398;28;20589;-64
2021/11/23 10:26:16;;;;;;;4.13;2.30;;;;;;;-149.78;100.00;50447.97;5072376;28;20375;-65
2021/11/23 10:28:45;;;;;;;2.50;1.83;;;;;;;-149.78;100.00;50440.16;5067136;28;20075;-64
2021/11/23 10:31:13;;;;;;;3.25;2.30;;;;;;;-149.78;100.00;50436.25;5071611;28;20113;-64
2021/11/23 10:33:41;;;;;;;2.30;1.83;;;;;;;-149.78;100.00;50426.47;5071155;28;20142;-64
2021/11/23 10:36:09;;;;;;;3.88;2.00;;;;;;;-149.78;100.00;50424.50;5069893;28;20462;-64
2021/11/23 10:38:38;;;;;;;2.80;2.10;;;;;;;-149.78;100.00;50471.44;5071312;28;20024;-64
2021/11/23 10:41:10;;;;;;;4.55;2.35;;;;;;;-149.78;100.00;50447.97;5068759;28;20032;-64
2021/11/23 10:43:38;;;;;;;5.50;2.20;;;;;;;-149.78;100.00;50414.72;5066609;28;20071;-65
2021/11/23 10:46:11;;;;;;;4.53;2.03;;;;;;;-149.78;100.00;50416.69;5068330;28;20492;-64
2021/11/23 10:48:36;;;;;;;5.10;2.30;;;;;;;-149.78;100.00;50420.59;5071905;28;20526;-64
2021/11/23 10:51:02;;;;;;;4.15;2.50;;;;;;;-149.78;100.00;50453.84;5068901;28;20041;-64
2021/11/23 10:53:29;;;;;;;4.38;2.33;;;;;;;-149.78;100.00;50479.28;5070706;28;20064;-64
2021/11/23 10:55:54;;;;;;;3.45;2.25;;;;;;;-149.78;100.00;50440.16;5069596;28;20035;-64
2021/11/23 10:58:20;;;;;;;3.28;2.20;;;;;;;-149.78;100.00;50463.63;5070158;28;20453;-64
2021/11/23 11:00:48;;;;;;;3.45;2.25;;;;;;;-149.78;100.00;50440.16;5067330;28;20032;-64
2021/11/23 11:03:19;;;;;;;3.55;2.50;;;;;;;-149.78;100.00;50447.97;5069427;28;20028;-65
2021/11/23 11:06:04;;;;;;;5.82;2.88;;;;;;;-149.78;100.00;50455.81;5067382;28;20047;-65